createdAt,value
2023-01-11T00:00:04.959Z,3.07
2023-01-11T00:02:32.507Z,1.83
2023-01-11T00:04:59.646Z,2.30
2023-01-11T00:07:26.781Z,2.57
2023-01-11T00:09:53.846Z,2.67
2023-01-11T00:12:20.920Z,3.10
2023-01-11T00:14:48.401Z,1.97
2023-01-11T00:17:15.473Z,1.97
2023-01-11T00:19:42.805Z,1.50
2023-01-11T00:22:10.078Z,3.53
2023-01-11T00:24:37.837Z,2.10
2023-01-11T00:27:04.875Z,1.07
2023-01-11T00:29:31.989Z,3.57
2023-01-11T00:31:59.012Z,1.93
2023-01-11T00:34:26.186Z,0.80
2023-01-11T00:36:53.235Z,0.97
2023-01-11T00:39:20.453Z,1.07
2023-01-11T00:42:06.856Z,1.23
2023-01-11T00:44:52.684Z,4.17
2023-01-11T00:47:38.627Z,1.13
2023-01-11T00:50:05.901Z,1.90
2023-01-11T00:52:32.960Z,3.33
2023-01-11T00:55:00.044Z,1.07
2023-01-11T00:57:27.136Z,1.37
2023-01-11T00:59:54.352Z,1.33
2023-01-11T01:02:22.503Z,3.50
2023-01-11T01:04:49.799Z,1.77
2023-01-11T01:07:16.860Z,1.90
2023-01-11T01:09:43.923Z,5.77
2023-01-11T01:12:11.164Z,2.37
2023-01-11T01:14:38.526Z,0.80
2023-01-11T01:17:10.144Z,1.47
2023-01-11T01:19:38.083Z,1.07
2023-01-11T01:22:05.265Z,1.10
2023-01-11T01:24:33.235Z,0.63
2023-01-11T01:27:00.402Z,0.63
2023-01-11T01:29:27.495Z,1.20
2023-01-11T01:31:54.575Z,1.70
2023-01-11T01:34:21.621Z,1.73
2023-01-11T01:36:48.676Z,0.70
2023-01-11T01:39:15.856Z,0.83
2023-01-11T01:41:43.029Z,1.10
2023-01-11T01:44:28.773Z,1.10
2023-01-11T01:46:56.156Z,0.97
2023-01-11T01:52:06.464Z,1.43
2023-01-11T01:54:36.712Z,0.70
2023-01-11T01:57:06.455Z,1.53
2023-01-11T01:59:34.164Z,1.40
2023-01-11T02:02:01.740Z,0.97
2023-01-11T02:04:30.955Z,2.07
2023-01-11T02:07:07.052Z,1.00
2023-01-11T02:09:39.575Z,1.80
2023-01-11T02:12:07.557Z,0.80
2023-01-11T02:14:35.266Z,0.87
2023-01-11T02:17:02.368Z,0.50
2023-01-11T02:19:47.977Z,1.57
2023-01-11T02:22:29.234Z,0.70
2023-01-11T02:25:09.263Z,2.03
2023-01-11T02:27:59.563Z,1.87
2023-01-11T02:30:45.697Z,0.60
2023-01-11T02:33:19.185Z,1.07
2023-01-11T02:35:46.217Z,1.10
2023-01-11T02:38:19.365Z,2.47
2023-01-11T02:41:05.101Z,0.63
2023-01-11T02:43:55.879Z,0.73
2023-01-11T02:46:28.757Z,1.10
2023-01-11T02:49:14.716Z,0.67
2023-01-11T02:51:53.678Z,1.00
2023-01-11T02:54:22.156Z,0.83
2023-01-11T02:56:50.395Z,0.93
2023-01-11T02:59:19.572Z,1.00
2023-01-11T03:01:53.916Z,3.20
2023-01-11T03:04:25.212Z,0.70
2023-01-11T03:06:55.124Z,0.90
2023-01-11T03:09:38.872Z,1.77
2023-01-11T03:12:39.225Z,1.07
2023-01-11T03:15:24.801Z,0.97
2023-01-11T03:18:10.323Z,1.30
2023-01-11T03:20:42.566Z,0.87
2023-01-11T03:23:15.497Z,2.00
2023-01-11T03:25:57.669Z,1.53
2023-01-11T03:28:35.360Z,2.17
2023-01-11T03:31:20.870Z,1.60
2023-01-11T03:34:06.104Z,0.80
2023-01-11T03:36:39.308Z,0.87
2023-01-11T03:39:32.799Z,0.80
2023-01-11T03:42:01.731Z,0.73
2023-01-11T03:44:31.572Z,1.00
2023-01-11T03:47:07.969Z,0.80
2023-01-11T03:49:39.844Z,0.67
2023-01-11T03:52:09.297Z,0.93
2023-01-11T03:54:36.939Z,1.67
2023-01-11T03:57:07.090Z,1.03
2023-01-11T03:59:34.371Z,1.27
2023-01-11T04:02:01.789Z,1.33
2023-01-11T04:04:29.151Z,0.83
2023-01-11T04:06:56.316Z,1.20
2023-01-11T04:09:23.408Z,1.87
2023-01-11T04:11:50.567Z,1.90
2023-01-11T04:14:17.631Z,1.20
2023-01-11T04:16:44.685Z,0.83
2023-01-11T04:19:11.724Z,1.00
2023-01-11T04:21:38.802Z,1.47
2023-01-11T04:24:05.993Z,1.00
2023-01-11T04:26:33.236Z,1.40
2023-01-11T04:29:00.365Z,1.10
2023-01-11T04:31:27.568Z,1.10
2023-01-11T04:33:54.692Z,1.30
2023-01-11T04:36:21.768Z,1.33
2023-01-11T04:38:48.821Z,1.63
2023-01-11T04:41:34.917Z,1.33
2023-01-11T04:44:01.981Z,1.63
2023-01-11T04:46:29.011Z,1.20
2023-01-11T04:48:56.384Z,1.40
2023-01-11T04:51:23.456Z,2.40
2023-01-11T04:53:50.611Z,1.53
2023-01-11T04:56:20.726Z,1.50
2023-01-11T04:58:47.814Z,1.80
2023-01-11T05:01:16.866Z,1.60
2023-01-11T05:03:45.193Z,1.60
2023-01-11T05:06:12.840Z,1.60
2023-01-11T05:08:40.093Z,1.43
2023-01-11T05:11:08.185Z,1.70
2023-01-11T05:13:45.810Z,1.53
2023-01-11T05:16:13.260Z,1.77
2023-01-11T05:18:43.379Z,1.63
2023-01-11T05:21:12.758Z,1.50
2023-01-11T05:23:40.298Z,1.60
2023-01-11T05:26:08.776Z,2.37
2023-01-11T05:28:36.257Z,1.67
2023-01-11T05:31:05.436Z,1.70
2023-01-11T05:33:33.003Z,1.60
2023-01-11T05:36:01.140Z,1.87
2023-01-11T05:38:28.959Z,1.70
2023-01-11T05:40:56.852Z,1.60
2023-01-11T05:43:23.893Z,1.93
2023-01-11T05:45:50.656Z,2.50
2023-01-11T05:48:17.948Z,2.47
2023-01-11T05:50:44.695Z,2.20
2023-01-11T05:53:13.696Z,2.17
2023-01-11T05:58:26.034Z,2.00
2023-01-11T06:00:59.576Z,2.20
2023-01-11T06:03:26.714Z,2.60
2023-01-11T06:05:53.904Z,3.13
2023-01-11T06:08:20.820Z,2.60
2023-01-11T06:10:52.098Z,2.90
2023-01-11T06:13:27.960Z,2.47
2023-01-11T06:16:02.761Z,2.80
2023-01-11T06:18:33.349Z,3.07
2023-01-11T06:21:01.132Z,3.00
2023-01-11T06:23:29.776Z,3.17
2023-01-11T06:25:56.789Z,3.13
2023-01-11T06:28:23.653Z,2.77
2023-01-11T06:30:58.017Z,3.17
2023-01-11T06:33:26.313Z,2.87
2023-01-11T06:35:53.376Z,3.33
2023-01-11T06:38:21.931Z,3.47
2023-01-11T06:41:00.435Z,3.23
2023-01-11T06:43:29.209Z,3.50
2023-01-11T06:45:56.000Z,3.97
2023-01-11T06:48:23.506Z,3.90
2023-01-11T06:50:52.102Z,3.77
2023-01-11T06:53:18.745Z,3.83
2023-01-11T06:55:49.000Z,4.40
2023-01-11T06:58:15.644Z,4.10
2023-01-11T07:00:42.289Z,5.40
2023-01-11T07:03:12.945Z,4.70
2023-01-11T07:05:40.622Z,4.97
2023-01-11T07:08:07.500Z,4.77
2023-01-11T07:10:34.333Z,4.57
2023-01-11T07:13:00.942Z,5.20
2023-01-11T07:15:28.644Z,5.30
2023-01-11T07:17:56.694Z,5.27
2023-01-11T07:20:24.496Z,5.20
2023-01-11T07:22:51.543Z,5.00
2023-01-11T07:25:18.973Z,5.40
2023-01-11T07:27:45.644Z,5.03
2023-01-11T07:30:12.674Z,5.13
2023-01-11T07:32:39.368Z,5.20
2023-01-11T07:35:06.719Z,4.90
2023-01-11T07:37:34.102Z,5.10
2023-01-11T07:40:00.832Z,5.27
2023-01-11T07:42:46.031Z,5.13
2023-01-11T07:45:12.832Z,4.97
2023-01-11T07:47:39.650Z,4.80
2023-01-11T07:50:07.066Z,5.87
2023-01-11T07:52:33.888Z,5.60
2023-01-11T07:55:02.619Z,5.57
2023-01-11T07:57:30.567Z,5.73
2023-01-11T07:59:57.250Z,6.53
2023-01-11T08:02:24.403Z,6.27
2023-01-11T08:04:51.215Z,6.67
2023-01-11T08:07:17.834Z,6.83
2023-01-11T08:09:44.620Z,6.53
2023-01-11T08:14:46.773Z,7.27
2023-01-11T08:17:16.255Z,6.83
2023-01-11T08:19:43.812Z,7.10
2023-01-11T08:22:11.106Z,6.50
2023-01-11T08:24:37.920Z,6.40
2023-01-11T08:27:05.402Z,6.87
2023-01-11T08:29:32.379Z,7.03
2023-01-11T08:32:00.531Z,6.13
2023-01-11T08:34:29.000Z,6.83
2023-01-11T08:37:01.964Z,6.47
2023-01-11T08:39:31.929Z,6.73
2023-01-11T08:41:59.846Z,6.23
2023-01-11T08:44:34.075Z,6.13
2023-01-11T08:47:01.636Z,5.93
2023-01-11T08:49:30.270Z,6.37
2023-01-11T08:51:56.946Z,5.80
2023-01-11T08:54:23.731Z,5.70
2023-01-11T08:56:50.493Z,6.03
2023-01-11T08:59:17.127Z,7.90
2023-01-11T09:01:43.833Z,6.50
2023-01-11T09:04:23.798Z,8.07
2023-01-11T09:06:51.939Z,10.00
2023-01-11T09:09:18.619Z,7.57
2023-01-11T09:11:54.321Z,6.77
2023-01-11T09:14:22.390Z,7.73
2023-01-11T09:16:49.122Z,7.73
2023-01-11T09:19:15.864Z,7.77
2023-01-11T09:21:44.116Z,7.00
2023-01-11T09:24:10.733Z,8.60
2023-01-11T09:26:38.291Z,8.17
2023-01-11T09:29:06.151Z,8.87
2023-01-11T09:31:32.902Z,8.87
2023-01-11T09:33:59.560Z,7.83
2023-01-11T09:36:27.921Z,8.40
2023-01-11T09:38:57.376Z,10.07
2023-01-11T09:41:54.302Z,8.23
2023-01-11T09:44:25.573Z,11.03
2023-01-11T09:47:05.916Z,13.13
2023-01-11T09:49:40.595Z,13.43
2023-01-11T09:52:18.183Z,17.13
2023-01-11T09:54:45.493Z,14.57
2023-01-11T09:57:32.711Z,16.33
2023-01-11T10:00:26.378Z,21.53
2023-01-11T10:03:29.646Z,12.77
2023-01-11T10:06:18.419Z,14.03
2023-01-11T10:18:35.337Z,20.10
2023-01-11T10:18:48.797Z,17.50
2023-01-11T10:21:25.126Z,18.77
2023-01-11T10:24:01.124Z,15.40
2023-01-11T10:26:36.214Z,19.00
2023-01-11T10:29:17.003Z,16.83
2023-01-11T10:32:09.675Z,16.03
2023-01-11T10:35:13.544Z,19.53
2023-01-11T10:38:04.791Z,16.37
2023-01-11T10:41:14.334Z,22.13
2023-01-11T10:43:49.174Z,12.33
2023-01-11T10:46:20.211Z,16.27
2023-01-11T10:48:47.274Z,12.77
2023-01-11T10:51:44.355Z,11.63
2023-01-11T10:54:15.354Z,10.67
2023-01-11T10:57:05.212Z,13.17
2023-01-11T10:59:51.717Z,17.80
2023-01-11T11:02:49.666Z,10.73
2023-01-11T11:05:25.504Z,10.73
2023-01-11T11:08:00.997Z,15.20
2023-01-11T11:10:51.200Z,9.27
2023-01-11T11:13:35.784Z,11.63
2023-01-11T11:16:23.625Z,12.13
2023-01-11T11:18:55.979Z,14.23
2023-01-11T11:21:25.037Z,13.60
2023-01-11T11:23:58.367Z,10.47
2023-01-11T11:26:30.313Z,13.40
2023-01-11T11:29:05.946Z,12.40
2023-01-11T11:31:34.775Z,10.27
2023-01-11T11:34:13.820Z,13.77
2023-01-11T11:36:49.501Z,9.00
2023-01-11T11:39:28.258Z,9.80
2023-01-11T11:42:06.666Z,12.27
2023-01-11T11:44:33.631Z,13.27
2023-01-11T11:47:04.818Z,10.33
2023-01-11T11:49:33.703Z,10.97
2023-01-11T11:52:02.319Z,7.70
2023-01-11T11:54:31.492Z,11.30
2023-01-11T11:56:59.624Z,13.33
2023-01-11T11:59:29.121Z,12.97
2023-01-11T12:01:58.341Z,7.60
2023-01-11T12:04:34.389Z,16.20
2023-01-11T12:09:46.995Z,13.80
2023-01-11T12:12:18.505Z,11.20
2023-01-11T12:15:05.300Z,10.30
2023-01-11T12:17:32.496Z,9.87
2023-01-11T12:19:59.631Z,12.30
2023-01-11T12:22:28.954Z,7.73
2023-01-11T12:25:14.667Z,10.10
2023-01-11T12:27:44.972Z,9.30
2023-01-11T12:30:12.040Z,10.73
2023-01-11T12:32:51.250Z,11.93
2023-01-11T12:35:21.046Z,13.87
2023-01-11T12:38:04.699Z,13.40
2023-01-11T12:40:37.771Z,8.60
2023-01-11T12:43:25.207Z,9.10
2023-01-11T12:46:15.399Z,11.53
2023-01-11T12:48:53.457Z,11.63
2023-01-11T12:51:20.463Z,9.90
2023-01-11T12:54:07.633Z,12.90
2023-01-11T12:56:44.040Z,13.17
2023-01-11T12:59:29.649Z,11.13
2023-01-11T13:02:05.392Z,9.73
2023-01-11T13:04:32.498Z,15.77
2023-01-11T13:07:02.549Z,10.63
2023-01-11T13:09:42.973Z,13.03
2023-01-11T13:12:10.004Z,11.27
2023-01-11T13:14:56.064Z,14.87
2023-01-11T13:17:35.428Z,8.37
2023-01-11T13:20:17.582Z,8.03
2023-01-11T13:22:48.404Z,10.10
2023-01-11T13:25:26.396Z,12.30
2023-01-11T13:27:54.922Z,13.20
2023-01-11T13:30:24.750Z,11.60
2023-01-11T13:33:00.402Z,14.50
2023-01-11T13:35:40.882Z,11.20
2023-01-11T13:38:17.794Z,13.07
2023-01-11T13:40:50.659Z,18.07
2023-01-11T13:43:36.422Z,14.63
2023-01-11T13:46:07.138Z,7.13
2023-01-11T13:48:36.796Z,10.87
2023-01-11T13:51:10.019Z,10.07
2023-01-11T13:53:39.586Z,9.60
2023-01-11T13:56:28.875Z,14.03
2023-01-11T13:59:14.735Z,12.20
2023-01-11T14:01:48.219Z,11.40
2023-01-11T14:04:22.735Z,10.10
2023-01-11T14:06:55.900Z,15.00
2023-01-11T14:09:41.504Z,13.87
2023-01-11T14:12:29.615Z,8.27
2023-01-11T14:15:15.303Z,8.70
2023-01-11T14:18:03.036Z,13.70
2023-01-11T14:20:37.577Z,16.87
2023-01-11T14:23:07.569Z,18.40
2023-01-11T14:25:53.240Z,9.83
2023-01-11T14:28:32.492Z,9.30
2023-01-11T14:30:59.699Z,13.83
2023-01-11T14:34:00.692Z,13.00
2023-01-11T14:36:36.827Z,9.00
2023-01-11T14:39:19.833Z,14.60
2023-01-11T14:42:09.440Z,6.50
2023-01-11T14:47:09.476Z,19.97
2023-01-11T14:49:51.429Z,8.83
2023-01-11T14:52:34.534Z,19.07
2023-01-11T14:55:21.695Z,10.97
2023-01-11T14:57:57.843Z,14.57
2023-01-11T15:00:24.887Z,12.80
2023-01-11T15:02:53.067Z,12.13
2023-01-11T15:05:32.862Z,13.83
2023-01-11T15:08:15.299Z,14.40
2023-01-11T15:10:58.002Z,9.83
2023-01-11T15:13:27.903Z,12.47
2023-01-11T15:16:27.269Z,18.07
2023-01-11T15:18:54.864Z,12.07
2023-01-11T15:21:26.902Z,13.77
2023-01-11T15:24:03.326Z,10.43
2023-01-11T15:26:30.388Z,11.77
2023-01-11T15:29:02.493Z,13.73
2023-01-11T15:31:35.480Z,11.73
2023-01-11T15:34:04.023Z,12.63
2023-01-11T15:36:49.687Z,20.77
2023-01-11T15:39:17.901Z,13.63
2023-01-11T15:42:06.754Z,10.83
2023-01-11T15:44:52.254Z,11.20
2023-01-11T15:47:34.272Z,16.97
2023-01-11T15:50:01.353Z,14.97
2023-01-11T15:52:50.533Z,17.20
2023-01-11T15:55:20.749Z,13.53
2023-01-11T15:57:58.683Z,16.13
2023-01-11T16:00:36.809Z,7.40
2023-01-11T16:03:10.122Z,12.33
2023-01-11T16:05:41.215Z,13.13
2023-01-11T16:08:20.544Z,16.07
2023-01-11T16:10:59.979Z,12.47
2023-01-11T16:13:44.694Z,10.80
2023-01-11T16:16:18.198Z,12.77
2023-01-11T16:18:48.085Z,18.37
2023-01-11T16:21:18.042Z,18.43
2023-01-11T16:23:46.636Z,11.63
2023-01-11T16:26:20.910Z,13.57
2023-01-11T16:28:52.276Z,13.90
2023-01-11T16:31:19.476Z,11.63
2023-01-11T16:33:49.500Z,14.03
2023-01-11T16:36:23.970Z,13.47
2023-01-11T16:39:05.619Z,11.23
2023-01-11T16:41:35.307Z,15.70
2023-01-11T16:44:05.097Z,11.87
2023-01-11T16:46:47.528Z,17.13
2023-01-11T16:49:18.510Z,21.70
2023-01-11T16:51:45.629Z,14.40
2023-01-11T16:54:20.561Z,11.20
2023-01-11T16:56:48.561Z,18.10
2023-01-11T16:59:15.800Z,14.27
2023-01-11T17:01:52.985Z,11.10
2023-01-11T17:04:27.870Z,10.20
2023-01-11T17:06:54.995Z,12.60
2023-01-11T17:09:22.373Z,11.97
2023-01-11T17:11:52.511Z,13.77
2023-01-11T17:14:37.967Z,10.63
2023-01-11T17:17:06.579Z,13.73
2023-01-11T17:19:38.955Z,8.90
2023-01-11T17:22:07.815Z,12.07
2023-01-11T17:24:37.908Z,9.00
2023-01-11T17:27:06.663Z,10.70
2023-01-11T17:29:37.650Z,16.73
2023-01-11T17:32:06.189Z,13.73
2023-01-11T17:34:36.977Z,17.23
2023-01-11T17:37:10.253Z,13.80
2023-01-11T17:39:39.029Z,24.00
2023-01-11T17:42:26.081Z,11.37
2023-01-11T17:45:12.981Z,18.07
2023-01-11T17:47:45.636Z,14.77
2023-01-11T17:50:22.540Z,10.23
2023-01-11T17:52:54.972Z,15.50
2023-01-11T17:55:25.794Z,18.77
2023-01-11T17:58:11.860Z,16.57
2023-01-11T18:00:39.268Z,11.37
2023-01-11T18:03:14.421Z,20.07
2023-01-11T18:05:41.520Z,12.10
2023-01-11T18:08:17.416Z,22.20
2023-01-11T18:10:49.426Z,13.03
2023-01-11T18:13:23.356Z,8.73
2023-01-11T18:15:50.476Z,12.63
2023-01-11T18:18:36.139Z,10.03
2023-01-11T18:21:03.255Z,11.13
2023-01-11T18:23:30.354Z,14.97
2023-01-11T18:26:36.587Z,14.93
2023-01-11T18:29:04.312Z,16.33
2023-01-11T18:31:31.612Z,16.77
2023-01-11T18:33:59.054Z,13.13
2023-01-11T18:36:30.080Z,19.40
2023-01-11T18:38:57.164Z,13.63
2023-01-11T18:41:44.746Z,15.90
2023-01-11T18:44:12.290Z,13.17
2023-01-11T18:46:39.394Z,10.00
2023-01-11T18:49:06.448Z,12.27
2023-01-11T18:51:36.403Z,9.50
2023-01-11T18:54:03.507Z,28.03
2023-01-11T18:56:30.532Z,8.00
2023-01-11T18:58:58.185Z,7.03
2023-01-11T19:01:25.553Z,8.20
2023-01-11T19:03:52.649Z,17.40
2023-01-11T19:06:22.644Z,18.33
2023-01-11T19:08:49.805Z,13.30
2023-01-11T19:11:16.999Z,15.87
2023-01-11T19:13:47.356Z,11.37
2023-01-11T19:16:14.491Z,10.03
2023-01-11T19:18:42.535Z,14.33
2023-01-11T19:21:11.788Z,7.40
2023-01-11T19:23:41.148Z,16.10
2023-01-11T19:26:08.490Z,9.83
2023-01-11T19:28:35.591Z,10.17
2023-01-11T19:31:06.743Z,12.47
2023-01-11T19:33:33.940Z,9.40
2023-01-11T19:36:05.238Z,8.97
2023-01-11T19:38:33.818Z,10.73
2023-01-11T19:41:05.036Z,9.40
2023-01-11T19:43:32.104Z,12.07
2023-01-11T19:45:59.512Z,14.67
2023-01-11T19:48:26.702Z,7.23
2023-01-11T19:51:01.495Z,11.73
2023-01-11T19:53:33.246Z,10.33
2023-01-11T19:56:08.695Z,9.07
2023-01-11T19:58:39.096Z,12.73
2023-01-11T20:01:13.014Z,13.70
2023-01-11T20:03:41.446Z,11.67
2023-01-11T20:06:09.305Z,11.30
2023-01-11T20:08:38.493Z,9.00
2023-01-11T20:11:09.437Z,5.53
2023-01-11T20:13:36.739Z,16.60
2023-01-11T20:16:07.926Z,8.37
2023-01-11T20:18:35.444Z,12.93
2023-01-11T20:21:02.690Z,13.03
2023-01-11T20:23:33.517Z,8.90
2023-01-11T20:26:01.198Z,9.93
2023-01-11T20:28:28.580Z,12.57
2023-01-11T20:31:00.147Z,10.10
2023-01-11T20:33:28.333Z,11.07
2023-01-11T20:38:34.530Z,9.70
2023-01-11T20:41:07.014Z,8.53
2023-01-11T20:43:36.347Z,9.43
2023-01-11T20:46:03.644Z,12.40
2023-01-11T20:48:30.839Z,11.37
2023-01-11T20:51:07.064Z,6.43
2023-01-11T20:53:34.169Z,21.77
2023-01-11T20:56:05.055Z,17.03
2023-01-11T20:58:32.260Z,13.57
2023-01-11T21:01:04.353Z,12.73
2023-01-11T21:03:31.445Z,9.60
2023-01-11T21:05:58.675Z,11.67
2023-01-11T21:08:25.727Z,13.80
2023-01-11T21:10:52.814Z,10.40
2023-01-11T21:13:19.909Z,13.23
2023-01-11T21:15:46.996Z,10.30
2023-01-11T21:18:14.287Z,9.90
2023-01-11T21:20:47.032Z,41.23
2023-01-11T21:23:15.315Z,13.43
2023-01-11T21:25:42.429Z,12.17
2023-01-11T21:28:09.491Z,10.67
2023-01-11T21:30:36.704Z,7.93
2023-01-11T21:33:03.807Z,9.50
2023-01-11T21:35:31.532Z,11.03
2023-01-11T21:37:58.636Z,10.33
2023-01-11T21:40:25.844Z,9.47
2023-01-11T21:42:53.137Z,9.60
2023-01-11T21:45:20.274Z,15.47
2023-01-11T21:47:47.375Z,7.50
2023-01-11T21:50:14.593Z,11.93
2023-01-11T21:52:41.664Z,7.77
2023-01-11T21:55:10.895Z,8.53
2023-01-11T21:57:38.033Z,8.37
2023-01-11T22:00:05.624Z,15.27
2023-01-11T22:02:32.715Z,14.50
2023-01-11T22:04:59.822Z,5.97
2023-01-11T22:07:29.991Z,10.13
2023-01-11T22:10:04.447Z,9.40
2023-01-11T22:12:33.337Z,7.10
2023-01-11T22:15:00.442Z,11.97
2023-01-11T22:17:28.016Z,10.37
2023-01-11T22:19:55.182Z,9.77
2023-01-11T22:22:22.327Z,9.23
2023-01-11T22:24:49.382Z,11.10
2023-01-11T22:27:16.424Z,10.53
2023-01-11T22:29:43.550Z,10.93
2023-01-11T22:32:10.817Z,11.53
2023-01-11T22:34:39.353Z,13.10
2023-01-11T22:37:06.977Z,9.77
2023-01-11T22:39:34.210Z,9.67
2023-01-11T22:42:01.341Z,7.23
2023-01-11T22:44:28.479Z,15.10
2023-01-11T22:46:55.574Z,10.43
2023-01-11T22:49:22.642Z,13.23
2023-01-11T22:51:49.786Z,8.57
2023-01-11T22:54:16.897Z,12.83
2023-01-11T22:56:44.040Z,14.60
2023-01-11T22:59:11.638Z,6.80
2023-01-11T23:01:39.880Z,10.97
2023-01-11T23:04:07.805Z,12.43
2023-01-11T23:06:36.048Z,12.07
2023-01-11T23:09:03.565Z,10.33
2023-01-11T23:11:50.783Z,14.17
2023-01-11T23:14:19.171Z,7.27
2023-01-11T23:16:47.123Z,10.93
2023-01-11T23:19:15.800Z,12.33
2023-01-11T23:21:44.406Z,12.83
2023-01-11T23:24:12.772Z,9.13
2023-01-11T23:26:40.018Z,10.77
2023-01-11T23:29:07.360Z,11.63
2023-01-11T23:31:35.168Z,8.47
2023-01-11T23:34:03.205Z,8.13
2023-01-11T23:36:33.386Z,9.93
2023-01-11T23:39:00.673Z,16.93
2023-01-11T23:41:46.668Z,10.17
2023-01-11T23:44:14.903Z,7.20
2023-01-11T23:47:01.017Z,8.90
2023-01-11T23:49:28.713Z,5.87
2023-01-11T23:51:56.109Z,11.43
2023-01-11T23:54:23.381Z,8.57
2023-01-11T23:56:50.487Z,11.73
2023-01-11T23:59:17.587Z,7.50
